createdAt,value
2022-10-23T00:00:13.311Z,100744.34
2022-10-23T00:02:39.981Z,100726.34
2022-10-23T00:05:06.769Z,100747.03
2022-10-23T00:07:33.205Z,100737.13
2022-10-23T00:09:59.518Z,100726.56
2022-10-23T00:12:28.073Z,100690.38
2022-10-23T00:14:54.420Z,100685.22
2022-10-23T00:17:20.748Z,100706.94
2022-10-23T00:19:47.058Z,100729.31
2022-10-23T00:22:13.396Z,100723.25
2022-10-23T00:24:39.734Z,100707.78
2022-10-23T00:27:06.062Z,100718.09
2022-10-23T00:29:32.497Z,100697.63
2022-10-23T00:31:58.935Z,100721.53
2022-10-23T00:34:25.243Z,100711.44
2022-10-23T00:36:51.570Z,100731.97
2022-10-23T00:39:17.857Z,100684.09
2022-10-23T00:41:44.282Z,100706.56
2022-10-23T00:44:30.488Z,100726.22
2022-10-23T00:46:58.562Z,100708.16
2022-10-23T00:49:25.543Z,100710.91
2022-10-23T00:51:55.601Z,100698.09
2022-10-23T00:54:25.652Z,100687.88
2022-10-23T00:56:56.042Z,100695.00
2022-10-23T00:59:22.693Z,100670.81
2022-10-23T01:01:49.291Z,100707.94
2022-10-23T01:04:16.115Z,100701.75
2022-10-23T01:07:05.476Z,100670.81
2022-10-23T01:09:36.322Z,100726.53
2022-10-23T01:12:15.281Z,100702.44
2022-10-23T01:15:09.898Z,100724.50
2022-10-23T01:17:56.824Z,100721.66
2022-10-23T01:20:31.727Z,100680.09
2022-10-23T01:23:10.371Z,100717.63
2022-10-23T01:26:05.725Z,100715.53
2022-10-23T01:28:42.274Z,100667.78
2022-10-23T01:31:14.293Z,100665.25
2022-10-23T01:33:52.418Z,100694.72
2022-10-23T01:36:23.719Z,100696.00
2022-10-23T01:39:11.994Z,100694.44
2022-10-23T01:41:46.535Z,100687.34
2022-10-23T01:44:26.367Z,100679.47
2022-10-23T01:46:53.977Z,100664.88
2022-10-23T01:49:22.607Z,100659.63
2022-10-23T01:51:53.871Z,100650.03
2022-10-23T01:54:25.510Z,100641.09
2022-10-23T01:56:52.968Z,100641.72
2022-10-23T01:59:26.989Z,100651.72
2022-10-23T02:01:56.306Z,100638.28
2022-10-23T02:04:55.330Z,100655.16
2022-10-23T02:07:21.899Z,100611.25
2022-10-23T02:09:48.345Z,100631.16
2022-10-23T02:12:47.562Z,100629.31
2022-10-23T02:15:38.499Z,100656.59
2022-10-23T02:18:27.634Z,100646.09
2022-10-23T02:20:58.982Z,100610.06
2022-10-23T02:24:01.434Z,100604.78
2022-10-23T02:26:35.065Z,100614.88
2022-10-23T02:29:27.737Z,100636.56
2022-10-23T02:31:54.156Z,100597.06
2022-10-23T02:34:20.500Z,100620.97
2022-10-23T02:36:47.068Z,100611.72
2022-10-23T02:39:13.447Z,100608.22
2022-10-23T02:42:03.388Z,100615.06
2022-10-23T02:45:01.073Z,100585.00
2022-10-23T02:47:39.611Z,100629.72
2022-10-23T02:50:42.036Z,100628.06
2022-10-23T02:53:20.211Z,100594.38
2022-10-23T02:55:55.391Z,100609.66
2022-10-23T02:58:43.426Z,100618.25
2022-10-23T03:01:14.691Z,100591.78
2022-10-23T03:03:55.276Z,100576.97
2022-10-23T03:06:23.176Z,100600.69
2022-10-23T03:08:53.832Z,100603.22
2022-10-23T03:11:20.773Z,100554.28
2022-10-23T03:13:47.068Z,100535.81
2022-10-23T03:16:13.462Z,100561.59
2022-10-23T03:18:39.796Z,100525.53
2022-10-23T03:21:06.314Z,100545.19
2022-10-23T03:23:32.684Z,100570.91
2022-10-23T03:25:58.989Z,100541.63
2022-10-23T03:28:25.303Z,100539.50
2022-10-23T03:30:52.297Z,100544.53
2022-10-23T03:33:18.768Z,100531.88
2022-10-23T03:35:45.629Z,100561.81
2022-10-23T03:38:11.978Z,100534.53
2022-10-23T03:40:38.316Z,100535.31
2022-10-23T03:43:04.658Z,100559.13
2022-10-23T03:45:32.449Z,100494.81
2022-10-23T03:47:58.741Z,100547.13
2022-10-23T03:50:25.210Z,100517.13
2022-10-23T03:52:51.651Z,100568.91
2022-10-23T03:55:18.032Z,100543.94
2022-10-23T03:57:44.343Z,100553.22
2022-10-23T04:00:11.053Z,100531.09
2022-10-23T04:02:37.454Z,100537.75
2022-10-23T04:05:03.962Z,100523.84
2022-10-23T04:07:30.302Z,100516.31
2022-10-23T04:09:56.596Z,100514.34
2022-10-23T04:12:22.953Z,100546.84
2022-10-23T04:14:49.251Z,100546.09
2022-10-23T04:17:15.638Z,100532.38
2022-10-23T04:19:41.965Z,100503.97
2022-10-23T04:22:08.343Z,100531.28
2022-10-23T04:24:34.749Z,100521.00
2022-10-23T04:27:01.081Z,100497.59
2022-10-23T04:29:29.318Z,100518.28
2022-10-23T04:31:55.798Z,100528.44
2022-10-23T04:34:22.225Z,100501.75
2022-10-23T04:36:48.524Z,100530.94
2022-10-23T04:39:14.878Z,100500.97
2022-10-23T04:41:41.246Z,100450.81
2022-10-23T04:44:08.251Z,100495.34
2022-10-23T04:46:34.583Z,100493.56
2022-10-23T04:49:00.870Z,100502.16
2022-10-23T04:51:27.325Z,100443.94
2022-10-23T04:53:53.617Z,100466.34
2022-10-23T04:56:20.048Z,100468.06
2022-10-23T04:58:46.404Z,100506.53
2022-10-23T05:01:12.770Z,100469.91
2022-10-23T05:03:39.355Z,100495.34
2022-10-23T05:06:06.071Z,100466.00
2022-10-23T05:08:32.517Z,100468.38
2022-10-23T05:10:58.902Z,100463.25
2022-10-23T05:13:25.346Z,100486.25
2022-10-23T05:15:53.092Z,100489.00
2022-10-23T05:18:35.247Z,100482.81
2022-10-23T05:21:26.895Z,100481.88
2022-10-23T05:23:54.623Z,100467.50
2022-10-23T05:26:22.335Z,100479.38
2022-10-23T05:28:49.247Z,100443.56
2022-10-23T05:31:17.557Z,100469.22
2022-10-23T05:33:44.196Z,100471.81
2022-10-23T05:36:12.534Z,100466.81
2022-10-23T05:38:39.069Z,100453.72
2022-10-23T05:41:05.424Z,100468.97
2022-10-23T05:43:31.800Z,100410.22
2022-10-23T05:45:58.552Z,100433.00
2022-10-23T05:48:35.793Z,100459.34
2022-10-23T05:51:10.078Z,100458.69
2022-10-23T05:53:38.876Z,100428.66
2022-10-23T05:56:08.946Z,100460.56
2022-10-23T05:58:35.491Z,100416.66
2022-10-23T06:01:09.535Z,100457.97
2022-10-23T06:03:37.146Z,100422.16
2022-10-23T06:06:04.126Z,100457.28
2022-10-23T06:08:31.286Z,100446.59
2022-10-23T06:10:57.882Z,100396.19
2022-10-23T06:13:24.243Z,100414.16
2022-10-23T06:15:50.593Z,100412.56
2022-10-23T06:18:17.028Z,100420.03
2022-10-23T06:20:44.182Z,100401.91
2022-10-23T06:23:10.501Z,100424.19
2022-10-23T06:25:36.837Z,100371.25
2022-10-23T06:28:03.156Z,100412.19
2022-10-23T06:30:29.522Z,100430.91
2022-10-23T06:32:55.952Z,100421.59
2022-10-23T06:35:22.787Z,100408.63
2022-10-23T06:37:49.143Z,100407.19
2022-10-23T06:40:15.486Z,100434.59
2022-10-23T06:42:42.056Z,100396.50
2022-10-23T06:45:09.000Z,100427.59
2022-10-23T06:47:35.389Z,100412.44
2022-10-23T06:50:01.817Z,100430.91
2022-10-23T06:52:47.825Z,100406.91
2022-10-23T06:55:14.654Z,100398.22
2022-10-23T06:57:41.377Z,100386.88
2022-10-23T07:00:08.530Z,100398.22
2022-10-23T07:02:34.972Z,100395.72
2022-10-23T07:05:01.443Z,100384.25
2022-10-23T07:07:30.201Z,100411.53
2022-10-23T07:09:56.799Z,100409.50
2022-10-23T07:12:23.171Z,100390.25
2022-10-23T07:14:49.510Z,100410.47
2022-10-23T07:17:15.844Z,100403.38
2022-10-23T07:19:42.151Z,100359.34
2022-10-23T07:22:10.759Z,100384.84
2022-10-23T07:24:40.146Z,100366.84
2022-10-23T07:27:06.538Z,100378.59
2022-10-23T07:29:33.273Z,100344.97
2022-10-23T07:32:04.367Z,100373.06
2022-10-23T07:34:31.582Z,100359.41
2022-10-23T07:36:57.966Z,100370.47
2022-10-23T07:39:24.267Z,100347.94
2022-10-23T07:41:50.655Z,100380.50
2022-10-23T07:44:17.537Z,100356.22
2022-10-23T07:46:44.853Z,100376.28
2022-10-23T07:49:11.443Z,100392.34
2022-10-23T07:51:37.773Z,100374.69
2022-10-23T07:54:04.160Z,100368.78
2022-10-23T07:56:31.338Z,100357.25
2022-10-23T07:58:57.866Z,100381.75
2022-10-23T08:01:31.602Z,100374.31
2022-10-23T08:03:58.623Z,100375.88
2022-10-23T08:06:25.043Z,100365.78
2022-10-23T08:08:51.437Z,100387.53
2022-10-23T08:11:25.684Z,100387.41
2022-10-23T08:13:55.911Z,100351.66
2022-10-23T08:16:22.851Z,100365.63
2022-10-23T08:18:50.368Z,100363.47
2022-10-23T08:21:17.959Z,100402.34
2022-10-23T08:23:44.811Z,100372.97
2022-10-23T08:26:11.804Z,100382.00
2022-10-23T08:28:38.434Z,100392.28
2022-10-23T08:31:09.985Z,100386.06
2022-10-23T08:33:37.027Z,100342.97
2022-10-23T08:36:03.861Z,100389.03
2022-10-23T08:38:30.194Z,100369.75
2022-10-23T08:40:56.533Z,100345.28
2022-10-23T08:43:34.328Z,100357.53
2022-10-23T08:46:08.653Z,100327.47
2022-10-23T08:48:48.977Z,100282.56
2022-10-23T08:51:25.688Z,100328.47
2022-10-23T08:54:00.047Z,100296.28
2022-10-23T08:56:28.992Z,100318.22
2022-10-23T08:59:15.010Z,100291.44
2022-10-23T09:01:49.499Z,100289.38
2022-10-23T09:04:16.427Z,100296.38
2022-10-23T09:07:15.935Z,100313.44
2022-10-23T09:10:03.301Z,100295.19
2022-10-23T09:12:31.119Z,100302.44
2022-10-23T09:15:15.489Z,100272.16
2022-10-23T09:17:44.135Z,100263.47
2022-10-23T09:20:17.889Z,100305.97
2022-10-23T09:22:45.285Z,100302.09
2022-10-23T09:25:26.728Z,100282.28
2022-10-23T09:28:00.072Z,100301.22
2022-10-23T09:30:35.659Z,100295.59
2022-10-23T09:33:21.609Z,100269.31
2022-10-23T09:35:55.708Z,100282.44
2022-10-23T09:38:27.723Z,100255.56
2022-10-23T09:40:54.231Z,100236.25
2022-10-23T09:43:23.997Z,100257.16
2022-10-23T09:46:02.654Z,100264.56
2022-10-23T09:48:29.489Z,100225.75
2022-10-23T09:51:23.634Z,100256.44
2022-10-23T09:53:58.927Z,100225.56
2022-10-23T09:56:39.894Z,100254.31
2022-10-23T09:59:22.311Z,100248.25
2022-10-23T10:01:52.554Z,100201.16
2022-10-23T10:04:19.317Z,100226.38
2022-10-23T10:06:45.688Z,100185.28
2022-10-23T10:09:14.850Z,100240.50
2022-10-23T10:11:46.261Z,100198.69
2022-10-23T10:14:27.714Z,100199.16
2022-10-23T10:17:01.037Z,100175.56
2022-10-23T10:20:03.958Z,100214.16
2022-10-23T10:22:54.482Z,100219.66
2022-10-23T10:25:38.253Z,100209.25
2022-10-23T10:28:26.279Z,100208.03
2022-10-23T10:30:55.696Z,100215.03
2022-10-23T10:33:45.740Z,100199.41
2022-10-23T10:36:37.801Z,100182.16
2022-10-23T10:39:11.843Z,100186.81
2022-10-23T10:42:08.855Z,100180.16
2022-10-23T10:44:53.577Z,100169.66
2022-10-23T10:47:26.152Z,100187.97
2022-10-23T10:50:16.945Z,100174.81
2022-10-23T10:52:58.443Z,100171.22
2022-10-23T10:55:33.833Z,100179.91
2022-10-23T10:58:13.718Z,100134.88
2022-10-23T11:00:40.606Z,100138.09
2022-10-23T11:03:25.744Z,100167.81
2022-10-23T11:05:55.832Z,100145.84
2022-10-23T11:08:44.394Z,100108.41
2022-10-23T11:11:30.007Z,100155.50
2022-10-23T11:13:57.493Z,100160.81
2022-10-23T11:16:29.133Z,100160.53
2022-10-23T11:19:30.960Z,100151.06
2022-10-23T11:22:04.836Z,100120.75
2022-10-23T11:24:58.223Z,100102.50
2022-10-23T11:27:46.716Z,100122.72
2022-10-23T11:30:22.506Z,100098.56
2022-10-23T11:32:56.745Z,100098.44
2022-10-23T11:35:45.297Z,100118.53
2022-10-23T11:38:23.601Z,100071.13
2022-10-23T11:40:57.052Z,100102.91
2022-10-23T11:43:33.347Z,100104.47
2022-10-23T11:46:13.275Z,100050.78
2022-10-23T11:48:42.245Z,100010.09
2022-10-23T11:51:34.675Z,100087.50
2022-10-23T11:54:10.065Z,100084.41
2022-10-23T11:56:57.774Z,100088.34
2022-10-23T11:59:48.734Z,100061.03
2022-10-23T12:02:28.733Z,100071.34
2022-10-23T12:04:55.471Z,100060.22
2022-10-23T12:07:29.659Z,100093.41
2022-10-23T12:09:59.801Z,100049.84
2022-10-23T12:12:31.071Z,100067.06
2022-10-23T12:15:11.683Z,100049.66
2022-10-23T12:17:40.212Z,100008.88
2022-10-23T12:20:12.401Z,100083.66
2022-10-23T12:22:44.309Z,100039.22
2022-10-23T12:25:17.209Z,100031.78
2022-10-23T12:28:10.435Z,100050.72
2022-10-23T12:33:30.299Z,100064.47
2022-10-23T12:36:28.163Z,100041.94
2022-10-23T12:38:58.372Z,100022.00
2022-10-23T12:41:27.912Z,99986.09
2022-10-23T12:43:57.873Z,100023.25
2022-10-23T12:46:39.217Z,100032.31
2022-10-23T12:49:15.166Z,100032.09
2022-10-23T12:51:41.569Z,100024.34
2022-10-23T12:54:19.954Z,100017.78
2022-10-23T12:56:47.089Z,99964.06
2022-10-23T12:59:37.915Z,100013.19
2022-10-23T13:02:33.833Z,100005.00
2022-10-23T13:05:03.655Z,100027.31
2022-10-23T13:07:34.050Z,100000.78
2022-10-23T13:10:01.731Z,99965.41
2022-10-23T13:12:34.800Z,100008.81
2022-10-23T13:15:03.403Z,100001.34
2022-10-23T13:17:47.689Z,99967.28
2022-10-23T13:20:26.829Z,99963.56
2022-10-23T13:23:01.820Z,99954.88
2022-10-23T13:25:33.318Z,99996.91
2022-10-23T13:28:14.896Z,99985.31
2022-10-23T13:30:45.807Z,99920.56
2022-10-23T13:33:22.634Z,99966.25
2022-10-23T13:36:00.382Z,99934.84
2022-10-23T13:38:37.679Z,99951.38
2022-10-23T13:41:06.328Z,99967.25
2022-10-23T13:43:34.107Z,99962.16
2022-10-23T13:46:01.049Z,99858.44
2022-10-23T13:48:28.294Z,99937.34
2022-10-23T13:51:06.257Z,99952.75
2022-10-23T13:53:33.220Z,99942.66
2022-10-23T13:55:59.922Z,99962.81
2022-10-23T13:58:26.403Z,99920.78
2022-10-23T14:00:53.193Z,99906.97
2022-10-23T14:03:24.106Z,99918.84
2022-10-23T14:05:51.299Z,99930.25
2022-10-23T14:08:17.969Z,99926.38
2022-10-23T14:10:45.606Z,99937.78
2022-10-23T14:13:12.137Z,99938.50
2022-10-23T14:15:38.735Z,99927.34
2022-10-23T14:18:08.177Z,99956.84
2022-10-23T14:20:35.174Z,99936.72
2022-10-23T14:23:01.977Z,99927.78
2022-10-23T14:25:28.504Z,99958.97
2022-10-23T14:30:26.548Z,99934.81
2022-10-23T14:32:53.012Z,99926.31
2022-10-23T14:35:19.741Z,99951.78
2022-10-23T14:37:46.629Z,99956.59
2022-10-23T14:40:13.622Z,99916.78
2022-10-23T14:42:40.093Z,99932.28
2022-10-23T14:45:07.137Z,99935.69
2022-10-23T14:47:33.668Z,99927.19
2022-10-23T14:50:00.609Z,99940.78
2022-10-23T14:52:27.247Z,99938.66
2022-10-23T14:54:53.948Z,99926.75
2022-10-23T14:57:22.031Z,99896.84
2022-10-23T14:59:49.726Z,99916.03
2022-10-23T15:02:17.059Z,99903.44
2022-10-23T15:04:43.568Z,99906.41
2022-10-23T15:07:10.115Z,99916.72
2022-10-23T15:09:37.373Z,99894.13
2022-10-23T15:12:05.133Z,99897.75
2022-10-23T15:14:32.365Z,99912.81
2022-10-23T15:16:58.948Z,99903.25
2022-10-23T15:19:25.930Z,99892.44
2022-10-23T15:21:52.677Z,99869.50
2022-10-23T15:24:21.177Z,99880.34
2022-10-23T15:26:48.557Z,99882.69
2022-10-23T15:29:16.027Z,99862.84
2022-10-23T15:31:53.323Z,99950.63
2022-10-23T15:34:23.333Z,99944.03
2022-10-23T15:36:51.690Z,99842.06
2022-10-23T15:39:22.163Z,99904.03
2022-10-23T15:41:52.451Z,99957.00
2022-10-23T15:44:21.452Z,99919.91
2022-10-23T15:46:48.726Z,99936.47
2022-10-23T15:49:15.997Z,99945.41
2022-10-23T15:51:43.408Z,99920.75
2022-10-23T15:54:16.672Z,99936.50
2022-10-23T15:56:44.393Z,99927.59
2022-10-23T15:59:11.688Z,99853.91
2022-10-23T16:01:38.606Z,99872.84
2022-10-23T16:04:05.223Z,99870.59
2022-10-23T16:06:32.262Z,99881.31
2022-10-23T16:08:59.503Z,99868.59
2022-10-23T16:11:29.535Z,99858.19
2022-10-23T16:13:58.757Z,99894.72
2022-10-23T16:16:26.682Z,99850.69
2022-10-23T16:18:53.632Z,99882.22
2022-10-23T16:21:21.877Z,99844.66
2022-10-23T16:23:48.997Z,99831.31
2022-10-23T16:26:16.199Z,99798.53
2022-10-23T16:28:44.834Z,99816.25
2022-10-23T16:31:19.371Z,99796.28
2022-10-23T16:33:47.809Z,99800.75
2022-10-23T16:36:14.359Z,99817.81
2022-10-23T16:38:41.099Z,99786.25
2022-10-23T16:41:07.989Z,99818.47
2022-10-23T16:43:34.739Z,99835.84
2022-10-23T16:46:05.264Z,99852.84
2022-10-23T16:48:33.649Z,99844.34
2022-10-23T16:51:01.392Z,99788.72
2022-10-23T16:53:30.994Z,99825.06
2022-10-23T16:55:58.354Z,99852.25
2022-10-23T16:58:26.178Z,99786.59
2022-10-23T17:01:05.926Z,99887.06
2022-10-23T17:03:41.978Z,99854.00
2022-10-23T17:06:11.459Z,99863.81
2022-10-23T17:08:38.440Z,99857.00
2022-10-23T17:11:07.804Z,99852.16
2022-10-23T17:13:35.434Z,99867.09
2022-10-23T17:16:07.589Z,99841.84
2022-10-23T17:18:36.802Z,99842.25
2022-10-23T17:21:05.298Z,99853.41
2022-10-23T17:23:31.704Z,99856.25
2022-10-23T17:25:58.947Z,99887.88
2022-10-23T17:28:25.581Z,99871.75
2022-10-23T17:30:52.360Z,99877.06
2022-10-23T17:33:19.229Z,99887.81
2022-10-23T17:35:46.228Z,99838.22
2022-10-23T17:38:17.907Z,99876.00
2022-10-23T17:43:17.154Z,99873.63
2022-10-23T17:45:45.166Z,99879.63
2022-10-23T17:48:13.251Z,99877.28
2022-10-23T17:50:40.863Z,99888.31
2022-10-23T17:53:08.004Z,99885.25
2022-10-23T17:55:41.202Z,99890.50
2022-10-23T17:58:08.324Z,99869.34
2022-10-23T18:00:36.555Z,99873.09
2022-10-23T18:03:03.837Z,99878.41
2022-10-23T18:05:33.217Z,99890.44
2022-10-23T18:08:00.097Z,99888.13
2022-10-23T18:10:26.712Z,99843.34
2022-10-23T18:12:53.203Z,99867.03
2022-10-23T18:15:19.710Z,99852.91
2022-10-23T18:17:46.305Z,99850.78
2022-10-23T18:20:14.644Z,99852.78
2022-10-23T18:22:41.027Z,99857.34
2022-10-23T18:25:07.914Z,99840.75
2022-10-23T18:27:34.331Z,99850.31
2022-10-23T18:30:00.830Z,99850.94
2022-10-23T18:32:27.828Z,99860.06
2022-10-23T18:34:54.166Z,99856.25
2022-10-23T18:37:20.480Z,99842.47
2022-10-23T18:39:46.793Z,99860.59
2022-10-23T18:42:13.202Z,99863.47
2022-10-23T18:44:39.578Z,99846.06
2022-10-23T18:47:05.981Z,99837.50
2022-10-23T18:49:32.373Z,99821.66
2022-10-23T18:51:58.780Z,99819.75
2022-10-23T18:54:25.114Z,99830.38
2022-10-23T18:56:51.421Z,99823.38
2022-10-23T18:59:20.725Z,99830.38
2022-10-23T19:01:47.697Z,99848.00
2022-10-23T19:04:19.943Z,99808.09
2022-10-23T19:06:53.163Z,99850.13
2022-10-23T19:09:24.475Z,99821.03
2022-10-23T19:11:55.432Z,99820.16
2022-10-23T19:14:21.742Z,99829.06
2022-10-23T19:17:00.088Z,99849.25
2022-10-23T19:19:37.278Z,99853.81
2022-10-23T19:22:04.574Z,99823.63
2022-10-23T19:24:40.786Z,99825.91
2022-10-23T19:27:07.965Z,99853.84
2022-10-23T19:29:38.109Z,99832.91
2022-10-23T19:32:04.667Z,99848.03
2022-10-23T19:34:31.099Z,99851.56
2022-10-23T19:36:57.462Z,99834.81
2022-10-23T19:39:25.666Z,99851.69
2022-10-23T19:41:53.171Z,99843.75
2022-10-23T19:44:20.811Z,99830.16
2022-10-23T19:46:48.151Z,99824.66
2022-10-23T19:49:15.046Z,99851.31
2022-10-23T19:51:50.420Z,99830.56
2022-10-23T19:54:17.626Z,99786.19
2022-10-23T19:56:43.944Z,99822.06
2022-10-23T19:59:12.923Z,99906.97
2022-10-23T20:01:39.495Z,99951.81
2022-10-23T20:04:05.946Z,99968.34
2022-10-23T20:06:34.553Z,99986.03
2022-10-23T20:09:02.557Z,99999.47
2022-10-23T20:11:30.755Z,99992.09
2022-10-23T20:13:57.807Z,99994.88
2022-10-23T20:16:27.335Z,99941.53
2022-10-23T20:18:53.977Z,99920.81
2022-10-23T20:21:20.900Z,99932.56
2022-10-23T20:23:47.714Z,99906.06
2022-10-23T20:26:17.458Z,99924.97
2022-10-23T20:28:47.039Z,99914.75
2022-10-23T20:31:14.911Z,99914.91
2022-10-23T20:33:42.299Z,99809.19
2022-10-23T20:36:20.365Z,99934.13
2022-10-23T20:38:46.783Z,99884.41
2022-10-23T20:41:13.104Z,99890.03
2022-10-23T20:43:39.519Z,99916.94
2022-10-23T20:46:08.609Z,99936.97
2022-10-23T20:48:39.264Z,99895.47
2022-10-23T20:51:11.801Z,99925.75
2022-10-23T20:53:38.894Z,99935.09
2022-10-23T20:56:19.704Z,99929.03
2022-10-23T20:58:46.370Z,99909.59
2022-10-23T21:01:16.263Z,99909.28
2022-10-23T21:03:43.456Z,99885.44
2022-10-23T21:06:13.056Z,99950.13
2022-10-23T21:08:40.799Z,99880.69
2022-10-23T21:11:10.573Z,99917.28
2022-10-23T21:13:36.882Z,99911.91
2022-10-23T21:16:17.238Z,99941.41
2022-10-23T21:18:46.632Z,99932.56
2022-10-23T21:21:19.173Z,99901.34
2022-10-23T21:23:47.729Z,99934.72
2022-10-23T21:26:15.666Z,99951.63
2022-10-23T21:28:55.730Z,99949.75
2022-10-23T21:31:31.939Z,99941.59
2022-10-23T21:33:59.548Z,99929.69
2022-10-23T21:36:25.992Z,99946.53
2022-10-23T21:38:54.610Z,99952.28
2022-10-23T21:41:23.691Z,99945.13
2022-10-23T21:43:54.861Z,99952.47
2022-10-23T21:46:22.730Z,99948.06
2022-10-23T21:48:49.199Z,99903.06
2022-10-23T21:51:29.095Z,99895.44
2022-10-23T21:53:56.873Z,99944.09
2022-10-23T21:56:30.927Z,99936.94
2022-10-23T21:58:59.199Z,99896.81
2022-10-23T22:01:26.476Z,99923.69
2022-10-23T22:03:53.282Z,99922.16
2022-10-23T22:06:22.466Z,99942.94
2022-10-23T22:08:50.388Z,99953.16
2022-10-23T22:11:16.968Z,99949.75
2022-10-23T22:13:44.314Z,99952.97
2022-10-23T22:16:13.655Z,99949.94
2022-10-23T22:18:40.801Z,99848.06
2022-10-23T22:21:11.040Z,99955.69
2022-10-23T22:23:37.952Z,99883.69
2022-10-23T22:26:23.871Z,99940.53
2022-10-23T22:28:52.103Z,99852.63
2022-10-23T22:31:22.323Z,99930.78
2022-10-23T22:33:49.171Z,99905.31
2022-10-23T22:36:15.563Z,99932.38
2022-10-23T22:38:42.425Z,99881.16
2022-10-23T22:41:09.011Z,99940.41
2022-10-23T22:43:35.417Z,99896.78
2022-10-23T22:46:10.530Z,99928.44
2022-10-23T22:48:37.802Z,99928.44
2022-10-23T22:51:07.331Z,99925.78
2022-10-23T22:53:35.305Z,99903.66
2022-10-23T22:56:16.252Z,99917.44
2022-10-23T22:58:43.022Z,99916.50
2022-10-23T23:01:15.518Z,99892.69
2022-10-23T23:03:42.857Z,99904.94
2022-10-23T23:06:09.817Z,99925.19
2022-10-23T23:08:38.505Z,99928.97
2022-10-23T23:11:06.943Z,99931.97
2022-10-23T23:13:33.999Z,99897.78
2022-10-23T23:16:01.047Z,99895.47
2022-10-23T23:18:27.850Z,99905.31
2022-10-23T23:20:54.167Z,99904.66
2022-10-23T23:23:20.604Z,99934.63
2022-10-23T23:25:49.018Z,99894.72
2022-10-23T23:28:18.172Z,99887.63
2022-10-23T23:33:13.945Z,99899.81
2022-10-23T23:35:41.907Z,99927.97
2022-10-23T23:38:08.888Z,99885.16
2022-10-23T23:40:35.314Z,99891.91
2022-10-23T23:43:01.681Z,99911.53
2022-10-23T23:45:28.157Z,99919.28
2022-10-23T23:47:54.541Z,99848.22
2022-10-23T23:50:21.034Z,99875.53
2022-10-23T23:52:47.414Z,99886.97
2022-10-23T23:55:14.154Z,99872.81
2022-10-23T23:57:40.571Z,99872.63
